Chennai, India
Current Conditions -  °F | °C
As of 2:40 AM on Friday 24 Oct 2014 (Local Time) from VOMM Reporting Station
Thunderstorm Thunderstorm  
Wind Chill: 77°   Ceiling: 8000
Heat Index: 78°   Visibility: 1.2mi
Dew Point: 77°   Wind: 0mph
Humidity: 100%   Direction: NA
Pressure: 29.83"   Gusts: NA
Location:  13.06°N, 80.25°E
Report Text: VOMM 232140Z 00000KT 2000 TSRA SCT012 SCT018 FEW025CB OVC080 25/25 Q1010 TEMPO 1500 TSRA
Loading
Personal Weather Stations






























Interactive Weather Map New forecast layout! Learn more

10-Day Weather Forecast

Advertisements
Track Severe Weather on mobile